sensor_id;sensor_type;location;lat;lon;timestamp;temperature;humidity
28297;DHT22;62078;49.366;8.172;2022-12-10T00:01:46;18.50;54.20
28297;DHT22;62078;49.366;8.172;2022-12-10T00:04:12;18.50;54.10
28297;DHT22;62078;49.366;8.172;2022-12-10T00:06:39;18.50;54.10
28297;DHT22;62078;49.366;8.172;2022-12-10T00:09:06;18.50;54.10
28297;DHT22;62078;49.366;8.172;2022-12-10T00:11:33;18.50;54.20
28297;DHT22;62078;49.366;8.172;2022-12-10T00:13:59;18.50;54.10
28297;DHT22;62078;49.366;8.172;2022-12-10T00:16:27;18.50;54.10
28297;DHT22;62078;49.366;8.172;2022-12-10T00:18:53;18.50;54.10
28297;DHT22;62078;49.366;8.172;2022-12-10T00:21:29;18.50;54.20
28297;DHT22;62078;49.366;8.172;2022-12-10T00:23:55;18.50;54.10
28297;DHT22;62078;49.366;8.172;2022-12-10T00:26:39;18.50;54.10
28297;DHT22;62078;49.366;8.172;2022-12-10T00:29:06;18.50;54.00
28297;DHT22;62078;49.366;8.172;2022-12-10T00:31:35;18.60;54.00
28297;DHT22;62078;49.366;8.172;2022-12-10T00:34:03;18.60;54.00
28297;DHT22;62078;49.366;8.172;2022-12-10T00:36:42;18.60;54.10
28297;DHT22;62078;49.366;8.172;2022-12-10T00:39:09;18.60;54.10
28297;DHT22;62078;49.366;8.172;2022-12-10T00:41:35;18.60;54.10
28297;DHT22;62078;49.366;8.172;2022-12-10T00:44:01;18.60;54.10
28297;DHT22;62078;49.366;8.172;2022-12-10T00:46:27;18.60;54.10
28297;DHT22;62078;49.366;8.172;2022-12-10T00:48:53;18.60;54.20
28297;DHT22;62078;49.366;8.172;2022-12-10T00:51:24;18.60;54.10
28297;DHT22;62078;49.366;8.172;2022-12-10T00:53:52;18.60;54.10
28297;DHT22;62078;49.366;8.172;2022-12-10T00:56:20;18.60;54.10
28297;DHT22;62078;49.366;8.172;2022-12-10T00:58:47;18.60;54.20
28297;DHT22;62078;49.366;8.172;2022-12-10T01:01:28;18.60;54.20
28297;DHT22;62078;49.366;8.172;2022-12-10T01:03:57;18.60;54.10
28297;DHT22;62078;49.366;8.172;2022-12-10T01:06:36;18.60;54.40
28297;DHT22;62078;49.366;8.172;2022-12-10T01:09:04;18.60;54.10
28297;DHT22;62078;49.366;8.172;2022-12-10T01:11:34;18.60;54.30
28297;DHT22;62078;49.366;8.172;2022-12-10T01:14:00;18.60;54.10
28297;DHT22;62078;49.366;8.172;2022-12-10T01:16:26;18.60;54.10
28297;DHT22;62078;49.366;8.172;2022-12-10T01:18:54;18.60;54.10
28297;DHT22;62078;49.366;8.172;2022-12-10T01:21:20;18.70;54.10
28297;DHT22;62078;49.366;8.172;2022-12-10T01:23:48;18.70;54.30
28297;DHT22;62078;49.366;8.172;2022-12-10T01:26:20;18.70;54.00
28297;DHT22;62078;49.366;8.172;2022-12-10T01:28:46;18.70;54.10
28297;DHT22;62078;49.366;8.172;2022-12-10T01:31:17;18.70;54.10
28297;DHT22;62078;49.366;8.172;2022-12-10T01:33:43;18.70;54.00
28297;DHT22;62078;49.366;8.172;2022-12-10T01:36:18;18.70;54.10
28297;DHT22;62078;49.366;8.172;2022-12-10T01:38:44;18.70;54.10
28297;DHT22;62078;49.366;8.172;2022-12-10T01:41:21;18.70;54.10
28297;DHT22;62078;49.366;8.172;2022-12-10T01:43:54;18.70;54.10
28297;DHT22;62078;49.366;8.172;2022-12-10T01:46:21;18.70;54.00
28297;DHT22;62078;49.366;8.172;2022-12-10T01:48:47;18.70;54.00
28297;DHT22;62078;49.366;8.172;2022-12-10T01:51:14;18.70;54.10
28297;DHT22;62078;49.366;8.172;2022-12-10T01:53:41;18.70;54.10
28297;DHT22;62078;49.366;8.172;2022-12-10T01:56:08;18.70;54.10
28297;DHT22;62078;49.366;8.172;2022-12-10T01:58:34;18.70;54.10
28297;DHT22;62078;49.366;8.172;2022-12-10T02:01:39;18.70;54.10
28297;DHT22;62078;49.366;8.172;2022-12-10T02:07:13;18.70;54.00
28297;DHT22;62078;49.366;8.172;2022-12-10T02:15:15;18.80;54.10
28297;DHT22;62078;49.366;8.172;2022-12-10T02:18:06;18.70;54.10
28297;DHT22;62078;49.366;8.172;2022-12-10T02:20:37;18.80;54.00
28297;DHT22;62078;49.366;8.172;2022-12-10T02:28:46;18.80;54.10
28297;DHT22;62078;49.366;8.172;2022-12-10T02:31:18;18.80;54.60
28297;DHT22;62078;49.366;8.172;2022-12-10T02:33:53;18.80;54.00
28297;DHT22;62078;49.366;8.172;2022-12-10T02:36:21;18.80;54.00
28297;DHT22;62078;49.366;8.172;2022-12-10T02:38:50;18.80;54.00
28297;DHT22;62078;49.366;8.172;2022-12-10T02:41:24;18.80;54.00
28297;DHT22;62078;49.366;8.172;2022-12-10T02:43:53;18.80;54.00
28297;DHT22;62078;49.366;8.172;2022-12-10T02:46:21;18.80;54.10
28297;DHT22;62078;49.366;8.172;2022-12-10T02:48:48;18.90;54.00
28297;DHT22;62078;49.366;8.172;2022-12-10T02:51:15;18.80;54.00
28297;DHT22;62078;49.366;8.172;2022-12-10T02:53:45;18.90;54.00
28297;DHT22;62078;49.366;8.172;2022-12-10T02:56:15;18.80;54.10
28297;DHT22;62078;49.366;8.172;2022-12-10T03:04:03;18.80;54.00
28297;DHT22;62078;49.366;8.172;2022-12-10T03:06:39;18.90;53.90
28297;DHT22;62078;49.366;8.172;2022-12-10T03:09:46;18.80;53.90
28297;DHT22;62078;49.366;8.172;2022-12-10T03:12:28;18.90;53.80
28297;DHT22;62078;49.366;8.172;2022-12-10T03:15:03;18.90;53.80
28297;DHT22;62078;49.366;8.172;2022-12-10T03:17:30;18.90;53.70
28297;DHT22;62078;49.366;8.172;2022-12-10T03:19:57;18.90;53.70
28297;DHT22;62078;49.366;8.172;2022-12-10T03:22:25;18.90;53.70
28297;DHT22;62078;49.366;8.172;2022-12-10T03:24:52;18.90;53.70
28297;DHT22;62078;49.366;8.172;2022-12-10T03:27:20;18.90;53.90
28297;DHT22;62078;49.366;8.172;2022-12-10T03:29:51;18.90;53.90
28297;DHT22;62078;49.366;8.172;2022-12-10T03:32:19;18.90;53.90
28297;DHT22;62078;49.366;8.172;2022-12-10T03:34:46;18.90;53.90
28297;DHT22;62078;49.366;8.172;2022-12-10T03:37:13;18.90;53.90
28297;DHT22;62078;49.366;8.172;2022-12-10T03:39:41;18.90;53.90
28297;DHT22;62078;49.366;8.172;2022-12-10T03:42:07;18.90;54.00
28297;DHT22;62078;49.366;8.172;2022-12-10T03:44:35;18.90;53.90
28297;DHT22;62078;49.366;8.172;2022-12-10T03:47:03;18.90;54.00
28297;DHT22;62078;49.366;8.172;2022-12-10T03:49:30;18.90;54.20
28297;DHT22;62078;49.366;8.172;2022-12-10T03:51:55;18.90;53.90
28297;DHT22;62078;49.366;8.172;2022-12-10T03:54:21;18.90;54.00
28297;DHT22;62078;49.366;8.172;2022-12-10T03:56:48;18.90;54.10
28297;DHT22;62078;49.366;8.172;2022-12-10T03:59:13;18.90;54.10
28297;DHT22;62078;49.366;8.172;2022-12-10T04:01:41;19.00;54.10
28297;DHT22;62078;49.366;8.172;2022-12-10T04:04:07;19.00;54.10
28297;DHT22;62078;49.366;8.172;2022-12-10T04:06:33;19.00;54.10
28297;DHT22;62078;49.366;8.172;2022-12-10T04:08:58;19.00;54.70
28297;DHT22;62078;49.366;8.172;2022-12-10T04:11:25;19.00;54.20
28297;DHT22;62078;49.366;8.172;2022-12-10T04:13:51;19.00;54.10
28297;DHT22;62078;49.366;8.172;2022-12-10T04:16:36;19.00;53.90
28297;DHT22;62078;49.366;8.172;2022-12-10T04:19:10;19.00;54.00
28297;DHT22;62078;49.366;8.172;2022-12-10T04:21:38;19.00;53.90
28297;DHT22;62078;49.366;8.172;2022-12-10T04:24:25;19.00;53.80
28297;DHT22;62078;49.366;8.172;2022-12-10T04:27:16;19.00;54.10
28297;DHT22;62078;49.366;8.172;2022-12-10T04:29:42;19.00;53.90
28297;DHT22;62078;49.366;8.172;2022-12-10T04:32:08;19.00;53.90
28297;DHT22;62078;49.366;8.172;2022-12-10T04:34:34;19.00;53.80
28297;DHT22;62078;49.366;8.172;2022-12-10T04:37:01;19.00;53.70
28297;DHT22;62078;49.366;8.172;2022-12-10T04:39:28;19.00;53.60
28297;DHT22;62078;49.366;8.172;2022-12-10T04:41:53;19.00;53.60
28297;DHT22;62078;49.366;8.172;2022-12-10T04:44:19;19.00;53.50
28297;DHT22;62078;49.366;8.172;2022-12-10T04:46:45;19.00;53.60
28297;DHT22;62078;49.366;8.172;2022-12-10T04:49:11;19.00;53.80
28297;DHT22;62078;49.366;8.172;2022-12-10T04:51:37;19.00;53.80
28297;DHT22;62078;49.366;8.172;2022-12-10T04:54:04;19.00;53.70
28297;DHT22;62078;49.366;8.172;2022-12-10T04:56:30;19.00;53.80
28297;DHT22;62078;49.366;8.172;2022-12-10T04:58:56;19.00;53.90
28297;DHT22;62078;49.366;8.172;2022-12-10T05:01:22;19.00;53.80
28297;DHT22;62078;49.366;8.172;2022-12-10T05:03:49;19.00;54.00
28297;DHT22;62078;49.366;8.172;2022-12-10T05:06:16;19.00;54.00
28297;DHT22;62078;49.366;8.172;2022-12-10T05:08:43;19.00;54.00
28297;DHT22;62078;49.366;8.172;2022-12-10T05:11:29;19.00;53.90
28297;DHT22;62078;49.366;8.172;2022-12-10T05:13:55;19.00;53.80
28297;DHT22;62078;49.366;8.172;2022-12-10T05:16:22;19.10;54.00
28297;DHT22;62078;49.366;8.172;2022-12-10T05:18:49;19.10;53.90
28297;DHT22;62078;49.366;8.172;2022-12-10T05:21:17;19.10;53.90
28297;DHT22;62078;49.366;8.172;2022-12-10T05:23:47;19.10;54.00
28297;DHT22;62078;49.366;8.172;2022-12-10T05:26:16;19.10;53.80
28297;DHT22;62078;49.366;8.172;2022-12-10T05:28:44;19.10;53.60
28297;DHT22;62078;49.366;8.172;2022-12-10T05:31:15;19.10;53.80
28297;DHT22;62078;49.366;8.172;2022-12-10T05:33:41;19.10;53.90
28297;DHT22;62078;49.366;8.172;2022-12-10T05:36:07;19.10;53.80
28297;DHT22;62078;49.366;8.172;2022-12-10T05:38:34;19.10;53.80
28297;DHT22;62078;49.366;8.172;2022-12-10T05:41:04;19.10;53.60
28297;DHT22;62078;49.366;8.172;2022-12-10T05:43:30;19.10;53.80
28297;DHT22;62078;49.366;8.172;2022-12-10T05:46:00;19.10;53.60
28297;DHT22;62078;49.366;8.172;2022-12-10T05:48:26;19.00;53.70
28297;DHT22;62078;49.366;8.172;2022-12-10T05:50:52;19.10;53.50
28297;DHT22;62078;49.366;8.172;2022-12-10T05:53:18;19.10;53.50
28297;DHT22;62078;49.366;8.172;2022-12-10T05:55:44;19.10;53.60
28297;DHT22;62078;49.366;8.172;2022-12-10T05:58:09;19.10;53.90
28297;DHT22;62078;49.366;8.172;2022-12-10T06:00:38;19.10;53.80
28297;DHT22;62078;49.366;8.172;2022-12-10T06:03:05;19.10;53.40
28297;DHT22;62078;49.366;8.172;2022-12-10T06:05:36;19.10;53.70
28297;DHT22;62078;49.366;8.172;2022-12-10T06:08:02;19.10;53.60
28297;DHT22;62078;49.366;8.172;2022-12-10T06:10:28;19.10;53.80
28297;DHT22;62078;49.366;8.172;2022-12-10T06:12:54;19.10;53.70
28297;DHT22;62078;49.366;8.172;2022-12-10T06:15:19;19.10;53.80
28297;DHT22;62078;49.366;8.172;2022-12-10T06:17:45;19.10;53.80
28297;DHT22;62078;49.366;8.172;2022-12-10T06:20:11;19.10;53.80
28297;DHT22;62078;49.366;8.172;2022-12-10T06:22:36;19.10;53.80
28297;DHT22;62078;49.366;8.172;2022-12-10T06:25:02;19.10;53.60
28297;DHT22;62078;49.366;8.172;2022-12-10T06:27:30;19.10;53.60
28297;DHT22;62078;49.366;8.172;2022-12-10T06:29:56;19.10;53.70
28297;DHT22;62078;49.366;8.172;2022-12-10T06:32:22;19.10;53.70
28297;DHT22;62078;49.366;8.172;2022-12-10T06:34:48;19.10;53.70
28297;DHT22;62078;49.366;8.172;2022-12-10T06:37:14;19.10;53.70
28297;DHT22;62078;49.366;8.172;2022-12-10T06:39:39;19.10;53.60
28297;DHT22;62078;49.366;8.172;2022-12-10T06:42:05;19.10;53.90
28297;DHT22;62078;49.366;8.172;2022-12-10T06:44:31;19.10;53.90
28297;DHT22;62078;49.366;8.172;2022-12-10T06:46:57;19.10;53.60
28297;DHT22;62078;49.366;8.172;2022-12-10T06:49:22;19.10;53.60
28297;DHT22;62078;49.366;8.172;2022-12-10T06:51:48;19.10;54.60
28297;DHT22;62078;49.366;8.172;2022-12-10T06:54:14;19.20;55.80
28297;DHT22;62078;49.366;8.172;2022-12-10T06:56:39;19.20;54.90
28297;DHT22;62078;49.366;8.172;2022-12-10T06:59:06;19.20;54.30
28297;DHT22;62078;49.366;8.172;2022-12-10T07:01:31;19.20;55.20
28297;DHT22;62078;49.366;8.172;2022-12-10T07:03:57;19.10;55.70
28297;DHT22;62078;49.366;8.172;2022-12-10T07:06:25;19.10;55.20
28297;DHT22;62078;49.366;8.172;2022-12-10T07:08:51;19.10;54.80
28297;DHT22;62078;49.366;8.172;2022-12-10T07:11:20;19.10;54.80
28297;DHT22;62078;49.366;8.172;2022-12-10T07:13:46;19.10;54.80
28297;DHT22;62078;49.366;8.172;2022-12-10T07:16:21;19.10;54.10
28297;DHT22;62078;49.366;8.172;2022-12-10T07:18:48;19.10;51.40
28297;DHT22;62078;49.366;8.172;2022-12-10T07:21:26;19.00;51.10
28297;DHT22;62078;49.366;8.172;2022-12-10T07:23:54;19.10;53.40
28297;DHT22;62078;49.366;8.172;2022-12-10T07:26:23;19.00;47.30
28297;DHT22;62078;49.366;8.172;2022-12-10T07:31:16;18.90;53.60
28297;DHT22;62078;49.366;8.172;2022-12-10T07:33:42;18.90;53.60
28297;DHT22;62078;49.366;8.172;2022-12-10T07:36:11;18.90;53.80
28297;DHT22;62078;49.366;8.172;2022-12-10T07:38:38;18.90;53.90
28297;DHT22;62078;49.366;8.172;2022-12-10T07:41:05;19.00;53.90
28297;DHT22;62078;49.366;8.172;2022-12-10T07:43:34;19.00;54.00
28297;DHT22;62078;49.366;8.172;2022-12-10T07:46:05;19.00;53.40
28297;DHT22;62078;49.366;8.172;2022-12-10T07:48:31;18.90;53.10
28297;DHT22;62078;49.366;8.172;2022-12-10T07:50:58;19.00;52.90
28297;DHT22;62078;49.366;8.172;2022-12-10T07:53:23;18.90;53.60
28297;DHT22;62078;49.366;8.172;2022-12-10T07:55:50;18.90;53.60
28297;DHT22;62078;49.366;8.172;2022-12-10T07:58:15;18.90;53.60
28297;DHT22;62078;49.366;8.172;2022-12-10T08:00:41;18.90;53.70
28297;DHT22;62078;49.366;8.172;2022-12-10T08:03:07;18.90;53.90
28297;DHT22;62078;49.366;8.172;2022-12-10T08:05:32;18.90;53.80
28297;DHT22;62078;49.366;8.172;2022-12-10T08:07:58;18.90;53.50
28297;DHT22;62078;49.366;8.172;2022-12-10T08:10:24;18.90;53.70
28297;DHT22;62078;49.366;8.172;2022-12-10T08:12:49;18.90;53.20
28297;DHT22;62078;49.366;8.172;2022-12-10T08:15:15;18.90;53.60
28297;DHT22;62078;49.366;8.172;2022-12-10T08:17:40;18.90;53.30
28297;DHT22;62078;49.366;8.172;2022-12-10T08:20:07;18.90;53.50
28297;DHT22;62078;49.366;8.172;2022-12-10T08:22:33;18.90;53.40
28297;DHT22;62078;49.366;8.172;2022-12-10T08:24:59;18.80;52.90
28297;DHT22;62078;49.366;8.172;2022-12-10T08:27:25;18.90;52.90
28297;DHT22;62078;49.366;8.172;2022-12-10T08:29:51;18.80;52.80
28297;DHT22;62078;49.366;8.172;2022-12-10T08:32:16;18.80;52.90
28297;DHT22;62078;49.366;8.172;2022-12-10T08:34:42;18.80;52.60
28297;DHT22;62078;49.366;8.172;2022-12-10T08:37:08;18.80;52.50
28297;DHT22;62078;49.366;8.172;2022-12-10T08:39:33;18.80;52.30
28297;DHT22;62078;49.366;8.172;2022-12-10T08:41:59;18.80;52.50
28297;DHT22;62078;49.366;8.172;2022-12-10T08:44:25;18.80;52.20
28297;DHT22;62078;49.366;8.172;2022-12-10T08:46:50;18.80;51.90
28297;DHT22;62078;49.366;8.172;2022-12-10T08:49:16;18.70;51.80
28297;DHT22;62078;49.366;8.172;2022-12-10T08:51:42;18.70;52.00
28297;DHT22;62078;49.366;8.172;2022-12-10T08:54:08;18.70;51.90
28297;DHT22;62078;49.366;8.172;2022-12-10T08:56:34;18.70;52.00
28297;DHT22;62078;49.366;8.172;2022-12-10T08:59:00;18.70;51.90
28297;DHT22;62078;49.366;8.172;2022-12-10T09:01:26;18.70;52.10
28297;DHT22;62078;49.366;8.172;2022-12-10T09:03:51;18.70;50.80
28297;DHT22;62078;49.366;8.172;2022-12-10T09:06:20;18.70;51.50
28297;DHT22;62078;49.366;8.172;2022-12-10T09:08:46;18.70;51.50
28297;DHT22;62078;49.366;8.172;2022-12-10T09:13:42;18.70;51.80
28297;DHT22;62078;49.366;8.172;2022-12-10T09:16:09;18.70;51.90
28297;DHT22;62078;49.366;8.172;2022-12-10T09:18:34;18.70;51.70
28297;DHT22;62078;49.366;8.172;2022-12-10T09:21:05;18.70;51.70
28297;DHT22;62078;49.366;8.172;2022-12-10T09:23:30;18.70;51.50
28297;DHT22;62078;49.366;8.172;2022-12-10T09:25:56;18.70;51.40
28297;DHT22;62078;49.366;8.172;2022-12-10T09:28:22;18.70;51.60
28297;DHT22;62078;49.366;8.172;2022-12-10T09:30:55;18.70;51.60
28297;DHT22;62078;49.366;8.172;2022-12-10T09:33:21;18.70;51.60
28297;DHT22;62078;49.366;8.172;2022-12-10T09:35:47;18.70;51.60
28297;DHT22;62078;49.366;8.172;2022-12-10T09:38:12;18.70;51.70
28297;DHT22;62078;49.366;8.172;2022-12-10T09:40:55;18.70;51.70
28297;DHT22;62078;49.366;8.172;2022-12-10T09:46:23;18.70;51.60
28297;DHT22;62078;49.366;8.172;2022-12-10T09:51:35;17.10;36.80
28297;DHT22;62078;49.366;8.172;2022-12-10T09:54:04;16.50;40.00
28297;DHT22;62078;49.366;8.172;2022-12-10T09:56:37;16.60;42.40
28297;DHT22;62078;49.366;8.172;2022-12-10T09:59:36;16.80;44.50
28297;DHT22;62078;49.366;8.172;2022-12-10T10:04:41;17.40;46.60
28297;DHT22;62078;49.366;8.172;2022-12-10T10:07:08;17.50;46.50
28297;DHT22;62078;49.366;8.172;2022-12-10T10:09:39;17.60;46.90
28297;DHT22;62078;49.366;8.172;2022-12-10T10:12:15;17.70;47.10
28297;DHT22;62078;49.366;8.172;2022-12-10T10:14:43;17.80;47.30
28297;DHT22;62078;49.366;8.172;2022-12-10T10:17:31;17.90;47.30
28297;DHT22;62078;49.366;8.172;2022-12-10T10:19:58;17.90;47.50
28297;DHT22;62078;49.366;8.172;2022-12-10T10:22:24;18.00;47.80
28297;DHT22;62078;49.366;8.172;2022-12-10T10:24:52;18.00;47.90
28297;DHT22;62078;49.366;8.172;2022-12-10T10:27:20;18.00;47.90
28297;DHT22;62078;49.366;8.172;2022-12-10T10:29:53;18.00;48.30
28297;DHT22;62078;49.366;8.172;2022-12-10T10:34:58;18.00;48.50
28297;DHT22;62078;49.366;8.172;2022-12-10T10:39:59;18.10;48.50
28297;DHT22;62078;49.366;8.172;2022-12-10T10:42:42;18.10;48.70
28297;DHT22;62078;49.366;8.172;2022-12-10T10:45:40;18.10;48.80
28297;DHT22;62078;49.366;8.172;2022-12-10T10:48:20;18.10;48.80
28297;DHT22;62078;49.366;8.172;2022-12-10T10:51:07;18.10;48.90
28297;DHT22;62078;49.366;8.172;2022-12-10T10:53:42;18.10;48.90
28297;DHT22;62078;49.366;8.172;2022-12-10T10:59:00;18.10;49.20
28297;DHT22;62078;49.366;8.172;2022-12-10T11:16:12;18.10;50.00
28297;DHT22;62078;49.366;8.172;2022-12-10T11:18:43;18.10;50.00
28297;DHT22;62078;49.366;8.172;2022-12-10T11:24:04;18.10;50.00
28297;DHT22;62078;49.366;8.172;2022-12-10T11:56:37;18.10;50.30
28297;DHT22;62078;49.366;8.172;2022-12-10T11:59:05;18.00;50.20
28297;DHT22;62078;49.366;8.172;2022-12-10T12:01:59;18.10;50.30
28297;DHT22;62078;49.366;8.172;2022-12-10T12:07:09;18.00;50.80
28297;DHT22;62078;49.366;8.172;2022-12-10T12:12:37;18.00;50.30
28297;DHT22;62078;49.366;8.172;2022-12-10T12:15:24;18.00;50.10
28297;DHT22;62078;49.366;8.172;2022-12-10T12:18:02;18.00;50.30
28297;DHT22;62078;49.366;8.172;2022-12-10T12:20:33;18.00;50.30
28297;DHT22;62078;49.366;8.172;2022-12-10T12:25:57;18.00;50.40
28297;DHT22;62078;49.366;8.172;2022-12-10T12:31:18;18.00;50.40
28297;DHT22;62078;49.366;8.172;2022-12-10T12:33:59;17.90;50.40
28297;DHT22;62078;49.366;8.172;2022-12-10T12:36:34;17.90;50.50
28297;DHT22;62078;49.366;8.172;2022-12-10T12:41:53;17.90;50.50
28297;DHT22;62078;49.366;8.172;2022-12-10T12:44:28;17.90;50.50
28297;DHT22;62078;49.366;8.172;2022-12-10T12:47:05;17.90;50.40
28297;DHT22;62078;49.366;8.172;2022-12-10T12:49:38;17.90;50.50
28297;DHT22;62078;49.366;8.172;2022-12-10T12:52:29;17.90;50.50
28297;DHT22;62078;49.366;8.172;2022-12-10T12:55:01;17.90;50.60
28297;DHT22;62078;49.366;8.172;2022-12-10T13:00:10;17.90;50.60
28297;DHT22;62078;49.366;8.172;2022-12-10T13:05:32;17.90;50.50
28297;DHT22;62078;49.366;8.172;2022-12-10T13:08:22;17.90;50.60
28297;DHT22;62078;49.366;8.172;2022-12-10T13:11:14;17.80;50.70
28297;DHT22;62078;49.366;8.172;2022-12-10T13:14:02;17.80;50.60
28297;DHT22;62078;49.366;8.172;2022-12-10T13:37:53;17.70;50.90
28297;DHT22;62078;49.366;8.172;2022-12-10T13:43:38;17.70;50.90
28297;DHT22;62078;49.366;8.172;2022-12-10T13:48:51;17.70;50.90
28297;DHT22;62078;49.366;8.172;2022-12-10T13:51:20;17.70;51.00
28297;DHT22;62078;49.366;8.172;2022-12-10T14:07:34;14.70;39.50
28297;DHT22;62078;49.366;8.172;2022-12-10T14:10:01;14.70;42.60
28297;DHT22;62078;49.366;8.172;2022-12-10T14:12:31;15.00;43.70
28297;DHT22;62078;49.366;8.172;2022-12-10T14:15:03;15.40;45.40
28297;DHT22;62078;49.366;8.172;2022-12-10T14:17:41;15.70;46.60
28297;DHT22;62078;49.366;8.172;2022-12-10T14:20:13;15.80;46.70
28297;DHT22;62078;49.366;8.172;2022-12-10T14:22:45;16.00;47.00
28297;DHT22;62078;49.366;8.172;2022-12-10T14:25:17;16.10;47.30
28297;DHT22;62078;49.366;8.172;2022-12-10T14:32:37;16.40;48.10
28297;DHT22;62078;49.366;8.172;2022-12-10T14:35:06;16.50;48.10
28297;DHT22;62078;49.366;8.172;2022-12-10T14:37:37;16.50;48.30
28297;DHT22;62078;49.366;8.172;2022-12-10T14:40:06;16.60;48.40
28297;DHT22;62078;49.366;8.172;2022-12-10T14:45:03;16.70;48.80
28297;DHT22;62078;49.366;8.172;2022-12-10T14:47:36;16.80;49.00
28297;DHT22;62078;49.366;8.172;2022-12-10T14:50:04;16.90;49.40
28297;DHT22;62078;49.366;8.172;2022-12-10T14:52:38;16.90;49.60
28297;DHT22;62078;49.366;8.172;2022-12-10T14:55:05;17.00;49.70
28297;DHT22;62078;49.366;8.172;2022-12-10T14:57:34;16.90;49.80
28297;DHT22;62078;49.366;8.172;2022-12-10T15:02:45;17.00;49.80
28297;DHT22;62078;49.366;8.172;2022-12-10T15:05:16;17.00;49.70
28297;DHT22;62078;49.366;8.172;2022-12-10T15:07:42;17.10;49.90
28297;DHT22;62078;49.366;8.172;2022-12-10T15:10:18;17.10;50.40
28297;DHT22;62078;49.366;8.172;2022-12-10T15:12:48;17.20;50.20
28297;DHT22;62078;49.366;8.172;2022-12-10T15:15:28;17.20;48.40
28297;DHT22;62078;49.366;8.172;2022-12-10T15:28:35;17.20;51.10
28297;DHT22;62078;49.366;8.172;2022-12-10T15:31:21;17.20;51.00
28297;DHT22;62078;49.366;8.172;2022-12-10T15:33:53;17.20;51.10
28297;DHT22;62078;49.366;8.172;2022-12-10T15:38:55;17.20;51.20
28297;DHT22;62078;49.366;8.172;2022-12-10T15:41:33;17.20;51.20
28297;DHT22;62078;49.366;8.172;2022-12-10T15:44:06;17.30;51.20
28297;DHT22;62078;49.366;8.172;2022-12-10T15:46:56;17.30;51.20
28297;DHT22;62078;49.366;8.172;2022-12-10T15:49:22;17.30;51.10
28297;DHT22;62078;49.366;8.172;2022-12-10T15:51:48;17.30;51.20
28297;DHT22;62078;49.366;8.172;2022-12-10T15:54:38;17.20;51.00
28297;DHT22;62078;49.366;8.172;2022-12-10T15:57:21;17.30;51.20
28297;DHT22;62078;49.366;8.172;2022-12-10T15:59:50;17.30;51.10
28297;DHT22;62078;49.366;8.172;2022-12-10T16:04:59;17.30;51.10
28297;DHT22;62078;49.366;8.172;2022-12-10T16:07:25;17.30;51.10
28297;DHT22;62078;49.366;8.172;2022-12-10T16:09:51;17.30;51.10
28297;DHT22;62078;49.366;8.172;2022-12-10T16:12:17;17.30;51.10
28297;DHT22;62078;49.366;8.172;2022-12-10T16:14:53;17.30;51.10
28297;DHT22;62078;49.366;8.172;2022-12-10T16:17:22;17.30;51.10
28297;DHT22;62078;49.366;8.172;2022-12-10T16:19:48;17.20;51.10
28297;DHT22;62078;49.366;8.172;2022-12-10T16:22:14;17.20;51.10
28297;DHT22;62078;49.366;8.172;2022-12-10T16:24:39;17.30;51.20
28297;DHT22;62078;49.366;8.172;2022-12-10T16:27:12;17.20;51.10
28297;DHT22;62078;49.366;8.172;2022-12-10T16:29:38;17.20;51.10
28297;DHT22;62078;49.366;8.172;2022-12-10T16:32:04;17.20;51.10
28297;DHT22;62078;49.366;8.172;2022-12-10T16:34:30;17.20;51.10
28297;DHT22;62078;49.366;8.172;2022-12-10T16:36:56;17.20;51.10
28297;DHT22;62078;49.366;8.172;2022-12-10T16:39:22;17.20;51.10
28297;DHT22;62078;49.366;8.172;2022-12-10T16:41:54;17.20;51.10
28297;DHT22;62078;49.366;8.172;2022-12-10T16:44:20;17.20;51.10
28297;DHT22;62078;49.366;8.172;2022-12-10T16:46:45;17.20;51.10
28297;DHT22;62078;49.366;8.172;2022-12-10T16:49:11;17.20;51.10
28297;DHT22;62078;49.366;8.172;2022-12-10T16:51:37;17.20;51.20
28297;DHT22;62078;49.366;8.172;2022-12-10T16:54:03;17.20;51.20
28297;DHT22;62078;49.366;8.172;2022-12-10T16:56:29;17.20;51.20
28297;DHT22;62078;49.366;8.172;2022-12-10T16:58:55;17.20;51.20
28297;DHT22;62078;49.366;8.172;2022-12-10T17:01:26;17.20;51.30
28297;DHT22;62078;49.366;8.172;2022-12-10T17:03:57;17.20;51.30
28297;DHT22;62078;49.366;8.172;2022-12-10T17:06:23;17.20;51.30
28297;DHT22;62078;49.366;8.172;2022-12-10T17:08:49;17.20;51.40
28297;DHT22;62078;49.366;8.172;2022-12-10T17:11:27;17.20;51.40
28297;DHT22;62078;49.366;8.172;2022-12-10T17:14:32;17.10;51.30
28297;DHT22;62078;49.366;8.172;2022-12-10T17:16:59;17.20;51.40
28297;DHT22;62078;49.366;8.172;2022-12-10T17:19:28;17.20;51.40
28297;DHT22;62078;49.366;8.172;2022-12-10T17:21:54;17.10;51.90
28297;DHT22;62078;49.366;8.172;2022-12-10T17:24:20;17.20;51.40
28297;DHT22;62078;49.366;8.172;2022-12-10T17:26:47;17.10;51.30
28297;DHT22;62078;49.366;8.172;2022-12-10T17:29:16;17.10;51.30
28297;DHT22;62078;49.366;8.172;2022-12-10T17:31:44;17.10;51.30
28297;DHT22;62078;49.366;8.172;2022-12-10T17:34:11;17.10;51.40
28297;DHT22;62078;49.366;8.172;2022-12-10T17:36:38;17.10;51.50
28297;DHT22;62078;49.366;8.172;2022-12-10T17:39:04;17.10;51.50
28297;DHT22;62078;49.366;8.172;2022-12-10T17:41:30;17.10;52.20
28297;DHT22;62078;49.366;8.172;2022-12-10T17:43:56;17.10;49.10
28297;DHT22;62078;49.366;8.172;2022-12-10T17:46:24;17.10;50.60
28297;DHT22;62078;49.366;8.172;2022-12-10T17:48:50;17.00;44.80
28297;DHT22;62078;49.366;8.172;2022-12-10T17:51:16;16.80;45.30
28297;DHT22;62078;49.366;8.172;2022-12-10T17:53:42;16.80;44.60
28297;DHT22;62078;49.366;8.172;2022-12-10T17:56:18;16.80;44.80
28297;DHT22;62078;49.366;8.172;2022-12-10T17:58:45;16.90;46.10
28297;DHT22;62078;49.366;8.172;2022-12-10T18:01:11;16.90;47.00
28297;DHT22;62078;49.366;8.172;2022-12-10T18:03:38;17.00;47.30
28297;DHT22;62078;49.366;8.172;2022-12-10T18:06:08;17.00;47.50
28297;DHT22;62078;49.366;8.172;2022-12-10T18:08:35;17.00;48.00
28297;DHT22;62078;49.366;8.172;2022-12-10T18:11:01;17.10;48.60
28297;DHT22;62078;49.366;8.172;2022-12-10T18:13:26;17.10;49.60
28297;DHT22;62078;49.366;8.172;2022-12-10T18:15:52;17.20;49.20
28297;DHT22;62078;49.366;8.172;2022-12-10T18:18:18;17.20;49.20
28297;DHT22;62078;49.366;8.172;2022-12-10T18:20:44;17.20;49.30
28297;DHT22;62078;49.366;8.172;2022-12-10T18:23:11;17.10;49.30
28297;DHT22;62078;49.366;8.172;2022-12-10T18:25:37;17.20;49.90
28297;DHT22;62078;49.366;8.172;2022-12-10T18:30:47;17.20;49.60
28297;DHT22;62078;49.366;8.172;2022-12-10T18:33:14;17.20;49.50
28297;DHT22;62078;49.366;8.172;2022-12-10T18:35:41;17.20;49.50
28297;DHT22;62078;49.366;8.172;2022-12-10T18:38:11;17.20;50.20
28297;DHT22;62078;49.366;8.172;2022-12-10T18:40:38;17.20;50.30
28297;DHT22;62078;49.366;8.172;2022-12-10T18:43:03;17.30;50.30